createdAt,value
2022-08-03T00:00:27.070Z,53.01
2022-08-03T00:02:54.104Z,53.15
2022-08-03T00:05:20.921Z,53.26
2022-08-03T00:07:48.525Z,53.54
2022-08-03T00:10:16.381Z,52.87
2022-08-03T00:12:42.994Z,53.48
2022-08-03T00:15:15.097Z,53.29
2022-08-03T00:17:52.447Z,53.56
2022-08-03T00:20:21.393Z,53.62
2022-08-03T00:22:48.286Z,54.21
2022-08-03T00:25:14.944Z,54.39
2022-08-03T00:27:41.574Z,54.42
2022-08-03T00:30:08.481Z,54.60
2022-08-03T00:32:35.056Z,54.88
2022-08-03T00:35:04.372Z,56.24
2022-08-03T00:37:41.737Z,56.04
2022-08-03T00:40:13.618Z,56.64
2022-08-03T00:42:50.828Z,57.15
2022-08-03T00:45:18.636Z,56.82
2022-08-03T00:47:45.734Z,57.22
2022-08-03T00:50:12.965Z,57.27
2022-08-03T00:52:40.039Z,57.51
2022-08-03T00:55:06.963Z,58.82
2022-08-03T00:57:33.918Z,58.64
2022-08-03T01:00:00.922Z,58.97
2022-08-03T01:02:28.794Z,59.10
2022-08-03T01:04:56.332Z,59.46
2022-08-03T01:07:46.373Z,59.79
2022-08-03T01:10:22.692Z,60.25
2022-08-03T01:14:04.053Z,60.16
2022-08-03T01:16:35.676Z,60.27
2022-08-03T01:19:24.633Z,60.31
2022-08-03T01:22:10.946Z,59.83
2022-08-03T01:24:59.266Z,60.33
2022-08-03T01:27:43.440Z,59.97
2022-08-03T01:30:12.560Z,59.64
2022-08-03T01:33:01.673Z,59.67
2022-08-03T01:35:50.759Z,59.03
2022-08-03T01:38:32.135Z,59.38
2022-08-03T01:41:08.917Z,59.67
2022-08-03T01:44:26.680Z,59.38
2022-08-03T01:46:25.796Z,59.63
2022-08-03T01:48:54.931Z,59.24
2022-08-03T01:51:22.663Z,59.31
2022-08-03T01:53:52.240Z,59.17
2022-08-03T01:56:22.354Z,59.67
2022-08-03T01:58:50.799Z,59.78
2022-08-03T02:01:19.091Z,59.66
2022-08-03T02:04:00.119Z,60.16
2022-08-03T02:07:02.798Z,60.15
2022-08-03T02:09:20.067Z,60.38
2022-08-03T02:11:47.642Z,60.64
2022-08-03T02:14:15.949Z,61.01
2022-08-03T02:16:44.705Z,61.30
2022-08-03T02:19:11.823Z,61.54
2022-08-03T02:21:57.042Z,61.93
2022-08-03T02:24:25.615Z,62.14
2022-08-03T02:26:55.800Z,61.96
2022-08-03T02:29:40.050Z,62.09
2022-08-03T02:32:12.671Z,61.92
2022-08-03T02:34:40.147Z,62.05
2022-08-03T02:37:08.642Z,62.64
2022-08-03T02:39:36.787Z,62.84
2022-08-03T02:42:05.798Z,63.13
2022-08-03T02:44:34.182Z,63.21
2022-08-03T02:47:08.059Z,63.45
2022-08-03T02:49:50.724Z,63.47
2022-08-03T02:52:20.726Z,63.57
2022-08-03T02:54:51.259Z,63.66
2022-08-03T02:57:20.130Z,63.99
2022-08-03T02:59:47.750Z,63.56
2022-08-03T03:02:16.433Z,63.55
2022-08-03T03:05:51.108Z,63.66
2022-08-03T03:07:35.330Z,63.18
2022-08-03T03:10:19.770Z,63.46
2022-08-03T03:12:47.185Z,63.30
2022-08-03T03:15:13.828Z,62.90
2022-08-03T03:17:43.230Z,62.71
2022-08-03T03:20:10.695Z,62.76
2022-08-03T03:22:38.639Z,62.66
2022-08-03T03:25:08.223Z,62.28
2022-08-03T03:27:35.320Z,62.28
2022-08-03T03:30:03.260Z,62.78
2022-08-03T03:32:30.513Z,62.60
2022-08-03T03:34:59.261Z,62.64
2022-08-03T03:37:28.876Z,62.46
2022-08-03T03:42:38.320Z,62.42
2022-08-03T03:45:06.807Z,62.38
2022-08-03T03:47:36.899Z,62.24
2022-08-03T03:50:05.637Z,62.30
2022-08-03T03:52:33.035Z,62.26
2022-08-03T03:55:01.195Z,61.89
2022-08-03T03:57:28.614Z,61.60
2022-08-03T03:59:55.186Z,61.66
2022-08-03T04:02:21.852Z,61.51
2022-08-03T04:05:06.920Z,61.67
2022-08-03T04:08:04.874Z,61.39
2022-08-03T04:10:53.705Z,62.09
2022-08-03T04:13:21.824Z,61.87
2022-08-03T04:15:50.632Z,61.45
2022-08-03T04:18:19.131Z,61.88
2022-08-03T04:20:48.891Z,62.14
2022-08-03T04:23:19.757Z,62.19
2022-08-03T04:25:48.926Z,61.77
2022-08-03T04:28:30.686Z,62.33
2022-08-03T04:31:00.194Z,62.38
2022-08-03T04:33:29.457Z,62.17
2022-08-03T04:36:01.887Z,61.92
2022-08-03T04:38:32.828Z,61.89
2022-08-03T04:41:01.127Z,62.25
2022-08-03T04:43:29.422Z,61.86
2022-08-03T04:45:58.012Z,61.56
2022-08-03T04:48:24.857Z,61.23
2022-08-03T04:50:52.059Z,61.40
2022-08-03T04:53:19.538Z,61.17
2022-08-03T04:55:46.421Z,60.86
2022-08-03T04:58:13.038Z,60.47
2022-08-03T05:00:39.689Z,60.09
2022-08-03T05:03:20.578Z,60.29
2022-08-03T05:05:52.519Z,59.54
2022-08-03T05:08:20.291Z,59.71
2022-08-03T05:10:47.676Z,59.15
2022-08-03T05:13:14.614Z,58.27
2022-08-03T05:15:44.750Z,57.97
2022-08-03T05:18:14.181Z,58.16
2022-08-03T05:20:41.499Z,57.55
2022-08-03T05:23:08.169Z,57.43
2022-08-03T05:25:34.828Z,56.84
2022-08-03T05:28:01.471Z,55.19
2022-08-03T05:30:33.685Z,54.38
2022-08-03T05:33:02.530Z,54.35
2022-08-03T05:35:57.834Z,53.79
2022-08-03T05:38:23.884Z,53.18
2022-08-03T05:40:57.535Z,53.15
2022-08-03T05:43:43.296Z,52.42
2022-08-03T05:46:12.854Z,52.77
2022-08-03T05:48:40.600Z,52.18
2022-08-03T05:51:11.543Z,51.96
2022-08-03T05:53:41.856Z,52.17
2022-08-03T05:56:14.731Z,52.30
2022-08-03T05:58:48.605Z,51.12
2022-08-03T06:01:17.278Z,49.67
2022-08-03T06:03:45.289Z,48.84
2022-08-03T06:06:12.212Z,46.94
2022-08-03T06:08:39.786Z,43.92
2022-08-03T06:11:06.625Z,41.89
2022-08-03T06:13:33.294Z,39.84
2022-08-03T06:16:00.112Z,35.19
2022-08-03T06:18:26.724Z,35.64
2022-08-03T06:20:53.631Z,34.06
2022-08-03T06:23:22.372Z,31.69
2022-08-03T06:25:49.209Z,29.55
2022-08-03T06:31:03.664Z,26.48
2022-08-03T06:34:30.651Z,24.41
2022-08-03T06:36:20.065Z,22.65
2022-08-03T06:38:46.823Z,21.40
2022-08-03T06:41:13.496Z,20.63
2022-08-03T06:44:02.998Z,20.83
2022-08-03T06:46:26.739Z,20.37
2022-08-03T06:48:53.498Z,19.21
2022-08-03T06:51:20.124Z,19.17
2022-08-03T06:53:46.676Z,18.06
2022-08-03T06:56:13.466Z,17.77
2022-08-03T06:58:40.153Z,18.22
2022-08-03T07:01:06.804Z,18.47
2022-08-03T07:03:33.494Z,18.41
2022-08-03T07:06:00.454Z,18.08
2022-08-03T07:08:33.161Z,18.52
2022-08-03T07:11:01.127Z,18.23
2022-08-03T07:13:27.802Z,19.42
2022-08-03T07:15:56.432Z,18.99
2022-08-03T07:18:29.665Z,18.28
2022-08-03T07:20:58.144Z,17.44
2022-08-03T07:23:25.702Z,17.68
2022-08-03T07:25:52.704Z,17.68
2022-08-03T07:28:20.014Z,17.06
2022-08-03T07:30:47.384Z,16.04
2022-08-03T07:33:14.127Z,15.85
2022-08-03T07:35:40.848Z,18.47
2022-08-03T07:38:07.507Z,19.54
2022-08-03T07:40:34.777Z,20.59
2022-08-03T07:43:03.293Z,20.15
2022-08-03T07:45:31.379Z,19.69
2022-08-03T07:47:58.006Z,18.11
2022-08-03T07:50:24.709Z,17.86
2022-08-03T07:52:53.108Z,17.05
2022-08-03T07:55:21.881Z,16.79
2022-08-03T07:58:02.003Z,17.16
2022-08-03T08:00:29.123Z,17.42
2022-08-03T08:02:55.789Z,16.71
2022-08-03T08:05:22.392Z,16.97
2022-08-03T08:07:51.253Z,18.03
2022-08-03T08:10:18.854Z,16.72
2022-08-03T08:12:46.060Z,16.20
2022-08-03T08:15:12.891Z,18.24
2022-08-03T08:17:48.214Z,18.21
2022-08-03T08:20:28.291Z,17.13
2022-08-03T08:23:03.604Z,14.87
2022-08-03T08:25:52.237Z,15.90
2022-08-03T08:28:32.599Z,16.38
2022-08-03T08:31:00.701Z,15.35
2022-08-03T08:33:37.418Z,14.11
2022-08-03T08:36:15.569Z,12.09
2022-08-03T08:38:44.694Z,12.60
2022-08-03T08:41:12.766Z,12.52
2022-08-03T08:43:39.544Z,13.38
2022-08-03T08:46:08.444Z,13.46
2022-08-03T08:48:39.481Z,13.49
2022-08-03T08:51:06.942Z,13.54
2022-08-03T08:53:37.298Z,12.97
2022-08-03T08:56:05.611Z,12.44
2022-08-03T08:58:38.781Z,14.10
2022-08-03T09:01:06.224Z,14.30
2022-08-03T09:03:36.062Z,12.54
2022-08-03T09:06:03.251Z,15.43
2022-08-03T09:08:31.535Z,16.09
2022-08-03T09:10:58.542Z,16.85
2022-08-03T09:13:25.763Z,17.61
2022-08-03T09:16:12.530Z,17.67
2022-08-03T09:18:39.872Z,17.44
2022-08-03T09:21:34.393Z,17.05
2022-08-03T09:24:05.364Z,16.27
2022-08-03T09:26:37.640Z,15.67
2022-08-03T09:29:13.133Z,17.32
2022-08-03T09:31:44.214Z,17.23
2022-08-03T09:34:13.381Z,17.38
2022-08-03T09:36:42.047Z,17.63
2022-08-03T09:39:12.788Z,17.24
2022-08-03T09:41:48.423Z,18.78
2022-08-03T09:44:24.267Z,19.08
2022-08-03T09:46:56.682Z,20.82
2022-08-03T09:49:24.555Z,21.16
2022-08-03T09:52:31.977Z,20.21
2022-08-03T09:54:39.433Z,20.15
2022-08-03T09:57:06.147Z,19.85
2022-08-03T09:59:34.132Z,21.17
2022-08-03T10:02:01.939Z,23.25
2022-08-03T10:04:29.002Z,22.82
2022-08-03T10:07:11.447Z,24.14
2022-08-03T10:09:38.407Z,24.26
2022-08-03T10:12:12.522Z,23.75
2022-08-03T10:14:41.934Z,22.84
2022-08-03T10:17:09.823Z,22.67
2022-08-03T10:19:36.735Z,22.25
2022-08-03T10:22:34.312Z,23.21
2022-08-03T10:25:09.786Z,22.19
2022-08-03T10:27:42.254Z,21.92
2022-08-03T10:30:12.073Z,21.37
2022-08-03T10:32:44.764Z,21.56
2022-08-03T10:35:19.763Z,22.09
2022-08-03T10:38:13.013Z,22.89
2022-08-03T10:40:48.484Z,23.63
2022-08-03T10:43:27.522Z,23.30
2022-08-03T10:45:54.421Z,24.63
2022-08-03T10:48:22.199Z,24.68
2022-08-03T10:50:49.903Z,24.00
2022-08-03T10:53:16.641Z,24.27
2022-08-03T10:56:07.323Z,24.74
2022-08-03T10:58:53.350Z,23.82
2022-08-03T11:02:00.164Z,23.05
2022-08-03T11:04:29.787Z,22.86
2022-08-03T11:07:26.314Z,22.27
2022-08-03T11:09:55.062Z,23.29
2022-08-03T11:12:32.995Z,23.24
2022-08-03T11:15:06.280Z,23.89
2022-08-03T11:17:46.646Z,24.33
2022-08-03T11:21:01.464Z,24.28
2022-08-03T11:24:04.889Z,24.62
2022-08-03T11:26:34.058Z,24.39
2022-08-03T11:29:31.756Z,24.28
2022-08-03T11:31:58.698Z,24.87
2022-08-03T11:34:26.262Z,25.06
2022-08-03T11:37:22.711Z,25.90
2022-08-03T11:39:53.029Z,26.58
2022-08-03T11:42:22.859Z,26.52
2022-08-03T11:44:54.987Z,26.38
2022-08-03T11:47:23.168Z,25.89
2022-08-03T11:49:51.585Z,25.70
2022-08-03T11:52:19.536Z,25.31
2022-08-03T11:54:56.626Z,25.36
2022-08-03T11:59:17.091Z,25.25
2022-08-03T12:00:30.456Z,24.32
2022-08-03T12:03:03.604Z,23.56
2022-08-03T12:05:37.303Z,23.49
2022-08-03T12:08:06.674Z,24.17
2022-08-03T12:10:34.546Z,23.66
2022-08-03T12:13:02.709Z,25.19
2022-08-03T12:15:31.429Z,25.74
2022-08-03T12:17:58.399Z,25.85
2022-08-03T12:20:34.873Z,26.51
2022-08-03T12:23:05.218Z,26.52
2022-08-03T12:25:39.558Z,27.42
2022-08-03T12:28:36.581Z,26.25
2022-08-03T12:31:07.547Z,26.84
2022-08-03T12:34:04.211Z,26.51
2022-08-03T12:36:34.168Z,26.71
2022-08-03T12:39:04.385Z,25.81
2022-08-03T12:41:34.116Z,25.02
2022-08-03T12:44:05.377Z,24.82
2022-08-03T12:46:47.387Z,25.55
2022-08-03T12:49:17.399Z,24.41
2022-08-03T12:51:43.979Z,25.60
2022-08-03T12:54:17.492Z,26.20
2022-08-03T12:57:10.826Z,25.37
2022-08-03T12:59:53.089Z,25.50
2022-08-03T13:02:27.740Z,25.95
2022-08-03T13:04:55.162Z,25.33
2022-08-03T13:07:22.668Z,25.31
2022-08-03T13:09:53.029Z,25.20
2022-08-03T13:12:21.825Z,25.56
2022-08-03T13:14:50.957Z,25.40
2022-08-03T13:17:18.231Z,26.13
2022-08-03T13:19:46.385Z,25.41
2022-08-03T13:22:16.058Z,26.61
2022-08-03T13:24:45.071Z,25.74
2022-08-03T13:28:02.335Z,25.32
2022-08-03T13:29:59.548Z,24.41
2022-08-03T13:32:26.227Z,24.72
2022-08-03T13:34:52.906Z,24.13
2022-08-03T13:37:19.602Z,24.78
2022-08-03T13:39:57.577Z,25.24
2022-08-03T13:42:27.827Z,25.26
2022-08-03T13:44:54.416Z,24.88
2022-08-03T13:47:21.326Z,25.01
2022-08-03T13:49:59.389Z,24.66
2022-08-03T13:52:29.571Z,24.21
2022-08-03T13:54:56.206Z,23.60
2022-08-03T13:58:03.732Z,23.69
2022-08-03T14:00:10.279Z,23.85
2022-08-03T14:02:37.198Z,23.70
2022-08-03T14:05:04.274Z,23.89
2022-08-03T14:07:30.880Z,24.21
2022-08-03T14:09:57.510Z,24.75
2022-08-03T14:12:24.079Z,24.89
2022-08-03T14:14:50.660Z,24.40
2022-08-03T14:17:17.394Z,24.27
2022-08-03T14:19:53.026Z,24.31
2022-08-03T14:22:21.525Z,24.68
2022-08-03T14:24:49.445Z,23.94
2022-08-03T14:27:16.568Z,24.21
2022-08-03T14:29:43.390Z,23.61
2022-08-03T14:32:13.119Z,24.45
2022-08-03T14:34:40.902Z,24.88
2022-08-03T14:37:07.642Z,24.80
2022-08-03T14:42:20.958Z,26.01
2022-08-03T14:44:48.059Z,25.70
2022-08-03T14:47:14.965Z,25.38
2022-08-03T14:50:36.207Z,26.41
2022-08-03T14:52:28.911Z,25.74
2022-08-03T14:54:55.493Z,26.62
2022-08-03T14:57:22.339Z,26.69
2022-08-03T14:59:55.741Z,27.86
2022-08-03T15:02:24.915Z,28.06
2022-08-03T15:04:52.117Z,27.71
2022-08-03T15:07:19.189Z,28.27
2022-08-03T15:09:46.249Z,28.87
2022-08-03T15:12:12.834Z,29.00
2022-08-03T15:14:39.403Z,28.93
2022-08-03T15:17:06.466Z,29.34
2022-08-03T15:20:03.917Z,29.73
2022-08-03T15:22:20.764Z,29.08
2022-08-03T15:24:51.937Z,29.38
2022-08-03T15:27:18.812Z,29.36
2022-08-03T15:30:05.334Z,29.69
2022-08-03T15:32:33.664Z,29.54
2022-08-03T15:35:00.896Z,29.98
2022-08-03T15:37:28.454Z,30.02
2022-08-03T15:39:58.865Z,29.89
2022-08-03T15:42:27.186Z,29.79
2022-08-03T15:44:54.473Z,30.26
2022-08-03T15:47:21.631Z,30.03
2022-08-03T15:49:48.428Z,30.22
2022-08-03T15:52:14.997Z,30.27
2022-08-03T15:54:41.734Z,30.43
2022-08-03T15:57:08.329Z,31.15
2022-08-03T15:59:35.062Z,31.28
2022-08-03T16:02:01.866Z,31.01
2022-08-03T16:04:28.733Z,31.46
2022-08-03T16:06:55.324Z,31.47
2022-08-03T16:09:24.231Z,30.38
2022-08-03T16:12:15.704Z,30.13
2022-08-03T16:14:51.835Z,30.34
2022-08-03T16:17:19.695Z,30.23
2022-08-03T16:19:46.569Z,30.77
2022-08-03T16:22:13.407Z,30.38
2022-08-03T16:24:41.352Z,30.96
2022-08-03T16:27:25.048Z,30.93
2022-08-03T16:29:54.992Z,30.88
2022-08-03T16:32:21.633Z,30.72
2022-08-03T16:34:48.381Z,30.83
2022-08-03T16:37:37.551Z,30.20
2022-08-03T16:40:03.571Z,30.49
2022-08-03T16:42:30.162Z,29.70
2022-08-03T16:44:56.808Z,29.36
2022-08-03T16:47:23.532Z,29.31
2022-08-03T16:49:54.994Z,29.68
2022-08-03T16:52:23.787Z,29.66
2022-08-03T16:54:53.175Z,29.36
2022-08-03T16:57:56.265Z,29.87
2022-08-03T17:00:34.058Z,30.31
2022-08-03T17:03:03.904Z,30.11
2022-08-03T17:05:32.660Z,29.73
2022-08-03T17:08:13.598Z,29.81
2022-08-03T17:10:45.149Z,29.99
2022-08-03T17:13:21.769Z,30.20
2022-08-03T17:16:01.438Z,30.40
2022-08-03T17:18:34.196Z,30.99
2022-08-03T17:21:06.436Z,30.71
2022-08-03T17:23:43.584Z,31.02
2022-08-03T17:26:21.605Z,30.69
2022-08-03T17:28:57.369Z,31.41
2022-08-03T17:31:30.817Z,31.84
2022-08-03T17:34:00.783Z,32.15
2022-08-03T17:36:47.713Z,32.75
2022-08-03T17:39:30.843Z,32.86
2022-08-03T17:42:30.295Z,32.99
2022-08-03T17:44:55.417Z,33.13
2022-08-03T17:47:23.466Z,33.34
2022-08-03T17:49:56.929Z,33.47
2022-08-03T17:52:34.471Z,33.61
2022-08-03T17:55:55.778Z,34.00
2022-08-03T17:58:03.084Z,34.66
2022-08-03T18:00:51.724Z,35.10
2022-08-03T18:03:24.820Z,35.51
2022-08-03T18:06:12.201Z,35.48
2022-08-03T18:08:50.421Z,35.72
2022-08-03T18:11:21.818Z,36.21
2022-08-03T18:14:16.091Z,36.58
2022-08-03T18:16:54.900Z,36.95
2022-08-03T18:20:02.407Z,37.38
2022-08-03T18:22:10.114Z,37.89
2022-08-03T18:24:39.350Z,38.26
2022-08-03T18:27:07.217Z,38.75
2022-08-03T18:29:37.086Z,38.93
2022-08-03T18:32:13.324Z,39.13
2022-08-03T18:34:53.840Z,39.35
2022-08-03T18:37:25.451Z,39.42
2022-08-03T18:39:55.798Z,39.74
2022-08-03T18:42:25.867Z,40.26
2022-08-03T18:44:56.553Z,40.41
2022-08-03T18:47:23.484Z,40.40
2022-08-03T18:50:00.788Z,40.52
2022-08-03T18:53:22.996Z,40.35
2022-08-03T18:56:20.867Z,40.67
2022-08-03T18:59:03.205Z,40.86
2022-08-03T19:02:00.794Z,41.21
2022-08-03T19:04:41.073Z,41.21
2022-08-03T19:07:09.539Z,41.00
2022-08-03T19:09:46.880Z,41.28
2022-08-03T19:12:28.111Z,40.66
2022-08-03T19:15:05.542Z,40.55
2022-08-03T19:17:53.293Z,40.10
2022-08-03T19:20:22.997Z,39.59
2022-08-03T19:22:54.006Z,40.25
2022-08-03T19:25:27.952Z,40.09
2022-08-03T19:28:03.157Z,40.04
2022-08-03T19:30:38.919Z,39.95
2022-08-03T19:33:07.324Z,39.64
2022-08-03T19:35:49.802Z,39.89
2022-08-03T19:38:27.466Z,40.01
2022-08-03T19:41:00.887Z,40.21
2022-08-03T19:43:49.507Z,40.11
2022-08-03T19:46:22.131Z,39.47
2022-08-03T19:48:55.239Z,38.98
2022-08-03T19:52:01.960Z,38.77
2022-08-03T19:54:16.244Z,38.37
2022-08-03T19:56:48.951Z,37.97
2022-08-03T19:59:16.150Z,37.10
2022-08-03T20:01:50.218Z,36.71
2022-08-03T20:04:17.845Z,36.30
2022-08-03T20:06:49.662Z,35.73
2022-08-03T20:09:18.081Z,35.57
2022-08-03T20:11:45.300Z,35.35
2022-08-03T20:14:20.531Z,35.23
2022-08-03T20:16:49.001Z,34.81
2022-08-03T20:19:16.626Z,34.40
2022-08-03T20:21:48.107Z,34.10
2022-08-03T20:24:36.725Z,33.52
2022-08-03T20:27:08.123Z,33.69
2022-08-03T20:30:05.445Z,33.27
2022-08-03T20:32:25.316Z,33.26
2022-08-03T20:34:52.874Z,32.78
2022-08-03T20:37:20.014Z,32.52
2022-08-03T20:39:49.356Z,32.26
2022-08-03T20:42:21.491Z,32.00
2022-08-03T20:45:06.196Z,31.77
2022-08-03T20:47:41.641Z,31.56
2022-08-03T20:50:17.904Z,31.18
2022-08-03T20:52:49.574Z,31.18
2022-08-03T20:55:47.075Z,31.12
2022-08-03T20:58:05.517Z,31.02
2022-08-03T21:00:32.303Z,31.03
2022-08-03T21:02:58.951Z,30.98
2022-08-03T21:05:31.138Z,31.26
2022-08-03T21:08:15.862Z,31.34
2022-08-03T21:10:45.539Z,31.21
2022-08-03T21:13:24.941Z,31.26
2022-08-03T21:16:06.141Z,31.51
2022-08-03T21:18:53.878Z,31.35
2022-08-03T21:21:23.219Z,31.22
2022-08-03T21:23:53.278Z,31.60
2022-08-03T21:26:24.730Z,31.32
2022-08-03T21:28:53.636Z,31.49
2022-08-03T21:31:25.189Z,31.54
2022-08-03T21:34:05.316Z,31.65
2022-08-03T21:36:34.200Z,31.68
2022-08-03T21:39:02.732Z,31.53
2022-08-03T21:41:31.562Z,31.73
2022-08-03T21:43:58.990Z,31.71
2022-08-03T21:46:27.518Z,31.89
2022-08-03T21:49:52.021Z,31.81
2022-08-03T21:51:49.464Z,31.51
2022-08-03T21:54:17.648Z,31.91
2022-08-03T21:56:48.420Z,32.28
2022-08-03T21:59:19.730Z,31.52
2022-08-03T22:01:47.993Z,31.24
2022-08-03T22:04:53.273Z,31.79
2022-08-03T22:07:07.922Z,31.75
2022-08-03T22:09:35.770Z,31.82
2022-08-03T22:12:02.446Z,31.43
2022-08-03T22:14:32.185Z,31.86
2022-08-03T22:17:00.145Z,31.63
2022-08-03T22:19:26.717Z,31.77
2022-08-03T22:21:54.847Z,31.32
2022-08-03T22:24:24.170Z,31.15
2022-08-03T22:27:09.913Z,31.06
2022-08-03T22:29:36.802Z,31.30
2022-08-03T22:32:04.126Z,31.29
2022-08-03T22:34:31.076Z,31.44
2022-08-03T22:37:02.577Z,31.66
2022-08-03T22:39:30.222Z,31.83
2022-08-03T22:42:00.808Z,32.21
2022-08-03T22:44:28.131Z,32.58
2022-08-03T22:46:55.650Z,33.27
2022-08-03T22:49:22.955Z,33.49
2022-08-03T22:51:52.253Z,34.08
2022-08-03T22:54:19.535Z,34.90
2022-08-03T22:56:47.088Z,35.88
2022-08-03T22:59:40.283Z,36.06
2022-08-03T23:02:20.183Z,37.06
2022-08-03T23:04:52.113Z,37.68
2022-08-03T23:07:30.218Z,37.88
2022-08-03T23:09:58.006Z,38.53
2022-08-03T23:12:25.390Z,38.85
2022-08-03T23:14:55.219Z,39.39
2022-08-03T23:17:26.923Z,39.38
2022-08-03T23:19:53.871Z,39.54
2022-08-03T23:22:30.179Z,40.30
2022-08-03T23:24:59.383Z,40.41
2022-08-03T23:27:27.890Z,41.26
2022-08-03T23:29:58.405Z,41.41
2022-08-03T23:32:30.908Z,41.28
2022-08-03T23:35:20.241Z,41.45
2022-08-03T23:38:04.022Z,41.64
2022-08-03T23:40:36.951Z,41.63
2022-08-03T23:43:04.512Z,41.54
2022-08-03T23:45:35.641Z,41.34
2022-08-03T23:48:02.240Z,41.62
2022-08-03T23:50:40.366Z,41.46
2022-08-03T23:53:49.266Z,41.76
2022-08-03T23:56:42.247Z,41.66
2022-08-03T23:59:11.523Z,41.58
